UAKKUASP

Guest
Details From UAKK - KARAGANDA
To UASP - PAVLODAR
Flight Number -
Tags generated
Created
Modified
Stats Distance 214 nm / 396 km
Max Altitude 17,600 ft / 5,364 m
Waypoints 6
Social Downloads 0
Likes 0
Share VATSIM

Download

Looking for another format? Having issues loading an existing format? Contact us
Advertisement - Login to hide

Notes

Basic altitude profile: - Ascent Rate: 2500ft/min - Ascent Speed: 250kts - Cruise Altitude: 35000ft - Cruise Speed: 420kts - Descent Rate: 1500ft/min - Descent Speed: 250kts Options: - Use NATs: yes - Use PACOTS: yes - Use low airways: yes - Use high airways: yes

Route

UAKK KRG A351 UASB A80 UASP

ID Type Via Altitude Latitude Longitude Leg Dist Tot Dist Heading (true) Name
O UAKK APT - 0 ft / 0 m 49.67082˚ 73.33454˚ - 0 nm - KARAGANDA
KRG VOR - 500 ft / 152 m 49.68611˚ 73.36333˚ 1 nm 1 nm 51° / 51° KARAGANDA VOR-DME
GEDNO FIX A351 (AWY-LO) 17,600 ft / 5,364 m 50.36972˚ 74.00889˚ 48 nm 49 nm 31° / 31° -
UASB APT A351 (AWY-LO) 15,600 ft / 4,755 m 51.59000˚ 75.22000˚ 86 nm 135 nm 32° / 32° -
OGRUT FIX A80 (AWY-LO) 9,300 ft / 2,835 m 51.82333˚ 75.92028˚ 29 nm 165 nm 61° / 62° -
O UASP APT A80 (AWY-LO) 3,900 ft / 1,189 m 52.19486˚ 77.07403˚ 48 nm 213 nm 62° / 63° PAVLODAR

Altitude Profile

Advertisement - Login to hide

Weather


0- 5 10 15 20 25 30 35+ Temperature / ° C

Clouds and Precipitation
Forecast for 2017-12-16 00:00 UTC. Updated an hour ago

Ground ~20,000 ft ~40,000 ft Winds

UAKK

Details ICAO UAKK (KGF)
Name KARAGANDA
Region Kazakhstan and Kyrgyzstan
Timezone Asia/Almaty (UTC+6.0)
Stats Elevation 1,765 ft / 538 m (AMSL)
Location 49.670820° 73.334545°
Runways 1
Magnetic Variation 8.723° E

METAR

UAKK 152000Z 09003MPS CAVOK M26/M28 Q1038 R05/850550 NOSIG RMK QFE730/0974

Decode

TAF

TAF UAKK 151700Z 1518/1618 10005MPS CAVOK TXM13/1609Z TNM26/1601Z

Decode

Departure Runways

ID Width Length Bearing (true) Bearing (mag) Surface Threshold Offset Overrun Length
05 197 ft / 60 m 10,810 ft / 3,295 m 58.31° 49.59° Concrete 0 ft / 0 m 0 ft / 0 m
23 197 ft / 60 m 10,810 ft / 3,295 m 238.34° 229.62° Concrete 0 ft / 0 m 0 ft / 0 m

UASP

Details ICAO UASP (PWQ)
Name PAVLODAR
Region Kazakhstan and Kyrgyzstan
Timezone Asia/Almaty (UTC+6.0)
Stats Elevation 410 ft / 125 m (AMSL)
Location 52.194862° 77.074028°
Runways 1
Magnetic Variation 9.238° E

METAR

UASP 152000Z 12003MPS CAVOK M28/M31 Q1048 R21/450255 NOSIG RMK QFE774/1032

Decode

TAF

Not found

Destination Runways

ID Width Length Bearing (true) Bearing (mag) Surface Threshold Offset Overrun Length
03 148 ft / 45 m 8,145 ft / 2,483 m 42.75° 33.51° Concrete 0 ft / 0 m 0 ft / 0 m
21 148 ft / 45 m 8,145 ft / 2,483 m 222.77° 213.53° Concrete 0 ft / 0 m 0 ft / 0 m